Schedule Details


Flight Number: CTN471
Departure: Charles-de-gaulle (LFPG) at 18:30
Arrival: Franjo Tudman (LDZA) at 20:20
Route: LANVI UM164 EPL UN491 DEGES UN871 MADEB UN606 ELMEM UL607 GEDSO DCT VEKEN Y177 DEGUM DCT ARGOM

Weather Information
LFPG 221630Z 19009KT 9999 SCT013 BKN140 17/15 Q1009 NOSIG
LDZA 221630Z VRB02KT CAVOK 18/12 Q1016 NOSIG
Schedule Frequency

Route Map